sensor_id;sensor_type;location;lat;lon;timestamp;temperature;humidity
5962;DHT22;3007;50.770;0.250;2022-11-04T00:00:32;9.90;99.90
5962;DHT22;3007;50.770;0.250;2022-11-04T00:03:00;9.90;99.90
5962;DHT22;3007;50.770;0.250;2022-11-04T00:05:27;9.90;99.90
5962;DHT22;3007;50.770;0.250;2022-11-04T00:07:53;9.90;99.90
5962;DHT22;3007;50.770;0.250;2022-11-04T00:10:38;10.00;99.90
5962;DHT22;3007;50.770;0.250;2022-11-04T00:13:22;10.00;99.90
5962;DHT22;3007;50.770;0.250;2022-11-04T00:15:52;10.00;99.90
5962;DHT22;3007;50.770;0.250;2022-11-04T00:18:38;10.00;99.90
5962;DHT22;3007;50.770;0.250;2022-11-04T00:21:04;10.00;99.90
5962;DHT22;3007;50.770;0.250;2022-11-04T00:23:49;10.00;99.90
5962;DHT22;3007;50.770;0.250;2022-11-04T00:26:33;9.90;99.90
5962;DHT22;3007;50.770;0.250;2022-11-04T00:29:17;9.90;99.90
5962;DHT22;3007;50.770;0.250;2022-11-04T00:31:44;9.90;99.90
5962;DHT22;3007;50.770;0.250;2022-11-04T00:34:30;10.00;99.90
5962;DHT22;3007;50.770;0.250;2022-11-04T00:36:58;10.00;99.90
5962;DHT22;3007;50.770;0.250;2022-11-04T00:39:27;10.00;99.90
5962;DHT22;3007;50.770;0.250;2022-11-04T00:41:54;9.90;99.90
5962;DHT22;3007;50.770;0.250;2022-11-04T00:44:21;10.00;99.90
5962;DHT22;3007;50.770;0.250;2022-11-04T00:46:48;9.90;99.90
5962;DHT22;3007;50.770;0.250;2022-11-04T00:49:15;9.90;99.90
5962;DHT22;3007;50.770;0.250;2022-11-04T00:51:43;9.90;99.90
5962;DHT22;3007;50.770;0.250;2022-11-04T00:54:10;9.80;99.90
5962;DHT22;3007;50.770;0.250;2022-11-04T00:56:37;9.80;99.90
5962;DHT22;3007;50.770;0.250;2022-11-04T00:59:04;9.80;99.90
5962;DHT22;3007;50.770;0.250;2022-11-04T01:01:31;9.70;99.90
5962;DHT22;3007;50.770;0.250;2022-11-04T01:03:58;9.70;99.90
5962;DHT22;3007;50.770;0.250;2022-11-04T01:06:26;9.70;99.90
5962;DHT22;3007;50.770;0.250;2022-11-04T01:08:56;9.70;99.90
5962;DHT22;3007;50.770;0.250;2022-11-04T01:11:24;9.70;99.90
5962;DHT22;3007;50.770;0.250;2022-11-04T01:13:52;9.60;99.90
5962;DHT22;3007;50.770;0.250;2022-11-04T01:16:20;9.60;99.90
5962;DHT22;3007;50.770;0.250;2022-11-04T01:18:47;9.60;99.90
5962;DHT22;3007;50.770;0.250;2022-11-04T01:21:15;9.60;99.90
5962;DHT22;3007;50.770;0.250;2022-11-04T01:23:43;9.60;99.90
5962;DHT22;3007;50.770;0.250;2022-11-04T01:26:14;9.60;99.90
5962;DHT22;3007;50.770;0.250;2022-11-04T01:28:41;9.60;99.90
5962;DHT22;3007;50.770;0.250;2022-11-04T01:31:09;9.60;99.90
5962;DHT22;3007;50.770;0.250;2022-11-04T01:33:37;9.60;99.90
5962;DHT22;3007;50.770;0.250;2022-11-04T01:36:05;9.50;99.90
5962;DHT22;3007;50.770;0.250;2022-11-04T01:38:34;9.50;99.90
5962;DHT22;3007;50.770;0.250;2022-11-04T01:41:01;9.40;99.90
5962;DHT22;3007;50.770;0.250;2022-11-04T01:43:44;9.40;99.90
5962;DHT22;3007;50.770;0.250;2022-11-04T01:46:20;9.40;99.90
5962;DHT22;3007;50.770;0.250;2022-11-04T01:48:48;9.40;99.90
5962;DHT22;3007;50.770;0.250;2022-11-04T01:51:17;9.40;99.90
5962;DHT22;3007;50.770;0.250;2022-11-04T01:53:44;9.30;99.90
5962;DHT22;3007;50.770;0.250;2022-11-04T01:56:13;9.30;99.90
5962;DHT22;3007;50.770;0.250;2022-11-04T01:58:45;9.30;99.90
5962;DHT22;3007;50.770;0.250;2022-11-04T02:01:12;9.30;99.90
5962;DHT22;3007;50.770;0.250;2022-11-04T02:03:44;9.30;99.90
5962;DHT22;3007;50.770;0.250;2022-11-04T02:06:13;9.30;99.90
5962;DHT22;3007;50.770;0.250;2022-11-04T02:08:41;9.20;99.90
5962;DHT22;3007;50.770;0.250;2022-11-04T02:11:08;9.20;99.90
5962;DHT22;3007;50.770;0.250;2022-11-04T02:13:36;9.20;99.90
5962;DHT22;3007;50.770;0.250;2022-11-04T02:16:10;9.20;99.90
5962;DHT22;3007;50.770;0.250;2022-11-04T02:18:50;9.20;99.90
5962;DHT22;3007;50.770;0.250;2022-11-04T02:25:05;9.20;99.90
5962;DHT22;3007;50.770;0.250;2022-11-04T02:27:52;9.30;99.90
5962;DHT22;3007;50.770;0.250;2022-11-04T02:30:26;9.40;99.90
5962;DHT22;3007;50.770;0.250;2022-11-04T02:33:16;9.40;99.90
5962;DHT22;3007;50.770;0.250;2022-11-04T02:35:53;9.50;99.90
5962;DHT22;3007;50.770;0.250;2022-11-04T02:38:29;9.50;99.90
5962;DHT22;3007;50.770;0.250;2022-11-04T02:41:03;9.50;99.90
5962;DHT22;3007;50.770;0.250;2022-11-04T02:43:40;9.50;99.90
5962;DHT22;3007;50.770;0.250;2022-11-04T02:46:15;9.60;99.90
5962;DHT22;3007;50.770;0.250;2022-11-04T02:48:47;9.60;99.90
5962;DHT22;3007;50.770;0.250;2022-11-04T02:51:18;9.60;99.90
5962;DHT22;3007;50.770;0.250;2022-11-04T02:53:54;9.60;99.90
5962;DHT22;3007;50.770;0.250;2022-11-04T02:56:25;9.60;99.90
5962;DHT22;3007;50.770;0.250;2022-11-04T02:58:55;9.60;99.90
5962;DHT22;3007;50.770;0.250;2022-11-04T03:01:28;9.60;99.90
5962;DHT22;3007;50.770;0.250;2022-11-04T03:04:04;9.60;99.90
5962;DHT22;3007;50.770;0.250;2022-11-04T03:06:33;9.50;99.90
5962;DHT22;3007;50.770;0.250;2022-11-04T03:09:02;9.50;99.90
5962;DHT22;3007;50.770;0.250;2022-11-04T03:11:29;9.50;99.90
5962;DHT22;3007;50.770;0.250;2022-11-04T03:14:00;9.50;99.90
5962;DHT22;3007;50.770;0.250;2022-11-04T03:16:34;9.50;99.90
5962;DHT22;3007;50.770;0.250;2022-11-04T03:19:07;9.50;99.90
5962;DHT22;3007;50.770;0.250;2022-11-04T03:21:46;9.50;99.90
5962;DHT22;3007;50.770;0.250;2022-11-04T03:24:14;9.40;99.90
5962;DHT22;3007;50.770;0.250;2022-11-04T03:26:46;9.40;99.90
5962;DHT22;3007;50.770;0.250;2022-11-04T03:29:22;9.40;99.90
5962;DHT22;3007;50.770;0.250;2022-11-04T03:32:02;9.40;99.90
5962;DHT22;3007;50.770;0.250;2022-11-04T03:34:31;9.40;99.90
5962;DHT22;3007;50.770;0.250;2022-11-04T03:36:58;9.40;99.90
5962;DHT22;3007;50.770;0.250;2022-11-04T03:39:25;9.40;99.90
5962;DHT22;3007;50.770;0.250;2022-11-04T03:41:55;9.30;99.90
5962;DHT22;3007;50.770;0.250;2022-11-04T03:44:22;9.40;99.90
5962;DHT22;3007;50.770;0.250;2022-11-04T03:46:50;9.30;99.90
5962;DHT22;3007;50.770;0.250;2022-11-04T03:49:20;9.30;99.90
5962;DHT22;3007;50.770;0.250;2022-11-04T03:51:48;9.30;99.90
5962;DHT22;3007;50.770;0.250;2022-11-04T03:54:15;9.30;99.90
5962;DHT22;3007;50.770;0.250;2022-11-04T03:57:01;9.30;99.90
5962;DHT22;3007;50.770;0.250;2022-11-04T04:02:54;9.30;99.90
5962;DHT22;3007;50.770;0.250;2022-11-04T04:05:27;9.20;99.90
5962;DHT22;3007;50.770;0.250;2022-11-04T04:08:01;9.20;99.90
5962;DHT22;3007;50.770;0.250;2022-11-04T04:10:36;9.30;99.90
5962;DHT22;3007;50.770;0.250;2022-11-04T04:13:11;9.30;99.90
5962;DHT22;3007;50.770;0.250;2022-11-04T04:15:43;9.30;99.90
5962;DHT22;3007;50.770;0.250;2022-11-04T04:18:15;9.30;99.90
5962;DHT22;3007;50.770;0.250;2022-11-04T04:20:44;9.30;99.90
5962;DHT22;3007;50.770;0.250;2022-11-04T04:23:16;9.30;99.90
5962;DHT22;3007;50.770;0.250;2022-11-04T04:26:05;9.20;99.90
5962;DHT22;3007;50.770;0.250;2022-11-04T04:28:52;9.20;99.90
5962;DHT22;3007;50.770;0.250;2022-11-04T04:31:20;9.20;99.90
5962;DHT22;3007;50.770;0.250;2022-11-04T04:34:02;9.20;99.90
5962;DHT22;3007;50.770;0.250;2022-11-04T04:36:33;9.20;99.90
5962;DHT22;3007;50.770;0.250;2022-11-04T04:39:06;9.20;99.90
5962;DHT22;3007;50.770;0.250;2022-11-04T04:41:52;9.20;99.90
5962;DHT22;3007;50.770;0.250;2022-11-04T04:44:40;9.20;99.90
5962;DHT22;3007;50.770;0.250;2022-11-04T04:47:32;9.20;99.90
5962;DHT22;3007;50.770;0.250;2022-11-04T04:50:01;9.20;99.90
5962;DHT22;3007;50.770;0.250;2022-11-04T04:52:30;9.20;99.90
5962;DHT22;3007;50.770;0.250;2022-11-04T04:54:59;9.20;99.90
5962;DHT22;3007;50.770;0.250;2022-11-04T04:57:25;9.20;99.90
5962;DHT22;3007;50.770;0.250;2022-11-04T04:59:52;9.20;99.90
5962;DHT22;3007;50.770;0.250;2022-11-04T05:02:19;9.20;99.90
5962;DHT22;3007;50.770;0.250;2022-11-04T05:04:46;9.20;99.90
5962;DHT22;3007;50.770;0.250;2022-11-04T05:07:13;9.20;99.90
5962;DHT22;3007;50.770;0.250;2022-11-04T05:09:41;9.10;99.90
5962;DHT22;3007;50.770;0.250;2022-11-04T05:12:08;9.20;99.90
5962;DHT22;3007;50.770;0.250;2022-11-04T05:14:35;9.10;99.90
5962;DHT22;3007;50.770;0.250;2022-11-04T05:17:02;9.00;99.90
5962;DHT22;3007;50.770;0.250;2022-11-04T05:19:29;9.00;99.90
5962;DHT22;3007;50.770;0.250;2022-11-04T05:21:57;9.00;99.90
5962;DHT22;3007;50.770;0.250;2022-11-04T05:24:23;9.00;99.90
5962;DHT22;3007;50.770;0.250;2022-11-04T05:26:52;9.00;99.90
5962;DHT22;3007;50.770;0.250;2022-11-04T05:29:19;9.00;99.90
5962;DHT22;3007;50.770;0.250;2022-11-04T05:31:46;9.10;99.90
5962;DHT22;3007;50.770;0.250;2022-11-04T05:34:13;9.00;99.90
5962;DHT22;3007;50.770;0.250;2022-11-04T05:36:40;9.10;99.90
5962;DHT22;3007;50.770;0.250;2022-11-04T05:39:09;9.00;99.90
5962;DHT22;3007;50.770;0.250;2022-11-04T05:41:36;9.00;99.90
5962;DHT22;3007;50.770;0.250;2022-11-04T05:44:05;9.10;99.90
5962;DHT22;3007;50.770;0.250;2022-11-04T05:46:34;9.00;99.90
5962;DHT22;3007;50.770;0.250;2022-11-04T05:49:01;9.10;99.90
5962;DHT22;3007;50.770;0.250;2022-11-04T05:51:29;9.10;99.90
5962;DHT22;3007;50.770;0.250;2022-11-04T05:53:56;9.10;99.90
5962;DHT22;3007;50.770;0.250;2022-11-04T05:56:23;9.00;99.90
5962;DHT22;3007;50.770;0.250;2022-11-04T05:58:50;9.00;99.90
5962;DHT22;3007;50.770;0.250;2022-11-04T06:01:28;9.00;99.90
5962;DHT22;3007;50.770;0.250;2022-11-04T06:03:56;9.00;99.90
5962;DHT22;3007;50.770;0.250;2022-11-04T06:06:25;9.00;99.90
5962;DHT22;3007;50.770;0.250;2022-11-04T06:08:52;9.00;99.90
5962;DHT22;3007;50.770;0.250;2022-11-04T06:11:20;9.00;99.90
5962;DHT22;3007;50.770;0.250;2022-11-04T06:13:47;9.00;99.90
5962;DHT22;3007;50.770;0.250;2022-11-04T06:16:14;9.00;99.90
5962;DHT22;3007;50.770;0.250;2022-11-04T06:18:42;9.00;99.90
5962;DHT22;3007;50.770;0.250;2022-11-04T06:21:22;9.00;99.90
5962;DHT22;3007;50.770;0.250;2022-11-04T06:23:50;9.00;99.90
5962;DHT22;3007;50.770;0.250;2022-11-04T06:26:17;8.90;99.90
5962;DHT22;3007;50.770;0.250;2022-11-04T06:28:44;8.90;99.90
5962;DHT22;3007;50.770;0.250;2022-11-04T06:31:12;9.00;99.90
5962;DHT22;3007;50.770;0.250;2022-11-04T06:33:40;8.90;99.90
5962;DHT22;3007;50.770;0.250;2022-11-04T06:36:11;8.90;99.90
5962;DHT22;3007;50.770;0.250;2022-11-04T06:38:38;8.90;99.90
5962;DHT22;3007;50.770;0.250;2022-11-04T06:41:07;8.90;99.90
5962;DHT22;3007;50.770;0.250;2022-11-04T06:43:34;8.80;99.90
5962;DHT22;3007;50.770;0.250;2022-11-04T06:46:01;8.80;99.90
5962;DHT22;3007;50.770;0.250;2022-11-04T06:48:29;8.80;99.90
5962;DHT22;3007;50.770;0.250;2022-11-04T06:50:56;8.80;99.90
5962;DHT22;3007;50.770;0.250;2022-11-04T06:53:25;8.70;99.90
5962;DHT22;3007;50.770;0.250;2022-11-04T06:56:00;8.70;99.90
5962;DHT22;3007;50.770;0.250;2022-11-04T06:58:27;8.70;99.90
5962;DHT22;3007;50.770;0.250;2022-11-04T07:00:54;8.60;99.90
5962;DHT22;3007;50.770;0.250;2022-11-04T07:03:21;8.60;99.90
5962;DHT22;3007;50.770;0.250;2022-11-04T07:05:48;8.60;99.90
5962;DHT22;3007;50.770;0.250;2022-11-04T07:08:15;8.50;99.90
5962;DHT22;3007;50.770;0.250;2022-11-04T07:10:43;8.50;99.90
5962;DHT22;3007;50.770;0.250;2022-11-04T07:13:10;8.50;99.90
5962;DHT22;3007;50.770;0.250;2022-11-04T07:15:37;8.50;99.90
5962;DHT22;3007;50.770;0.250;2022-11-04T07:18:05;8.50;99.90
5962;DHT22;3007;50.770;0.250;2022-11-04T07:20:32;8.40;99.90
5962;DHT22;3007;50.770;0.250;2022-11-04T07:22:59;8.40;99.90
5962;DHT22;3007;50.770;0.250;2022-11-04T07:25:26;8.40;99.90
5962;DHT22;3007;50.770;0.250;2022-11-04T07:27:54;8.40;99.90
5962;DHT22;3007;50.770;0.250;2022-11-04T07:30:21;8.40;99.90
5962;DHT22;3007;50.770;0.250;2022-11-04T07:32:48;8.40;99.90
5962;DHT22;3007;50.770;0.250;2022-11-04T07:35:15;8.40;99.90
5962;DHT22;3007;50.770;0.250;2022-11-04T07:37:42;8.30;99.90
5962;DHT22;3007;50.770;0.250;2022-11-04T07:40:10;8.30;99.90
5962;DHT22;3007;50.770;0.250;2022-11-04T07:42:37;8.30;99.90
5962;DHT22;3007;50.770;0.250;2022-11-04T07:45:06;8.30;99.90
5962;DHT22;3007;50.770;0.250;2022-11-04T07:47:33;8.30;99.90
5962;DHT22;3007;50.770;0.250;2022-11-04T07:50:00;8.30;99.90
5962;DHT22;3007;50.770;0.250;2022-11-04T07:52:27;8.30;99.90
5962;DHT22;3007;50.770;0.250;2022-11-04T07:54:54;8.20;99.90
5962;DHT22;3007;50.770;0.250;2022-11-04T07:57:21;8.20;99.90
5962;DHT22;3007;50.770;0.250;2022-11-04T07:59:48;8.30;99.90
5962;DHT22;3007;50.770;0.250;2022-11-04T08:02:16;8.30;99.90
5962;DHT22;3007;50.770;0.250;2022-11-04T08:04:43;8.30;99.90
5962;DHT22;3007;50.770;0.250;2022-11-04T08:07:10;8.30;99.90
5962;DHT22;3007;50.770;0.250;2022-11-04T08:09:37;8.30;99.90
5962;DHT22;3007;50.770;0.250;2022-11-04T08:12:05;8.30;99.90
5962;DHT22;3007;50.770;0.250;2022-11-04T08:14:32;8.40;99.90
5962;DHT22;3007;50.770;0.250;2022-11-04T08:16:58;8.40;99.90
5962;DHT22;3007;50.770;0.250;2022-11-04T08:19:27;8.40;99.90
5962;DHT22;3007;50.770;0.250;2022-11-04T08:21:54;8.40;99.90
5962;DHT22;3007;50.770;0.250;2022-11-04T08:24:24;8.40;99.90
5962;DHT22;3007;50.770;0.250;2022-11-04T08:26:51;8.40;99.90
5962;DHT22;3007;50.770;0.250;2022-11-04T08:29:18;8.50;99.90
5962;DHT22;3007;50.770;0.250;2022-11-04T08:31:45;8.50;99.90
5962;DHT22;3007;50.770;0.250;2022-11-04T08:34:12;8.50;99.90
5962;DHT22;3007;50.770;0.250;2022-11-04T08:36:40;8.50;99.90
5962;DHT22;3007;50.770;0.250;2022-11-04T08:39:08;8.50;99.90
5962;DHT22;3007;50.770;0.250;2022-11-04T08:41:37;8.50;99.90
5962;DHT22;3007;50.770;0.250;2022-11-04T08:44:05;8.50;99.90
5962;DHT22;3007;50.770;0.250;2022-11-04T08:46:35;8.60;99.90
5962;DHT22;3007;50.770;0.250;2022-11-04T08:49:03;8.60;99.90
5962;DHT22;3007;50.770;0.250;2022-11-04T08:51:31;8.60;99.90
5962;DHT22;3007;50.770;0.250;2022-11-04T08:54:00;8.60;99.90
5962;DHT22;3007;50.770;0.250;2022-11-04T08:56:28;8.70;99.90
5962;DHT22;3007;50.770;0.250;2022-11-04T08:58:57;8.70;99.90
5962;DHT22;3007;50.770;0.250;2022-11-04T09:01:25;8.70;99.90
5962;DHT22;3007;50.770;0.250;2022-11-04T09:03:52;8.70;99.90
5962;DHT22;3007;50.770;0.250;2022-11-04T09:06:22;8.70;99.90
5962;DHT22;3007;50.770;0.250;2022-11-04T09:08:49;8.80;99.90
5962;DHT22;3007;50.770;0.250;2022-11-04T09:11:18;8.80;99.90
5962;DHT22;3007;50.770;0.250;2022-11-04T09:13:45;8.80;99.90
5962;DHT22;3007;50.770;0.250;2022-11-04T09:16:13;8.80;99.90
5962;DHT22;3007;50.770;0.250;2022-11-04T09:18:40;8.90;99.90
5962;DHT22;3007;50.770;0.250;2022-11-04T09:21:08;8.90;99.90
5962;DHT22;3007;50.770;0.250;2022-11-04T09:23:36;8.90;99.90
5962;DHT22;3007;50.770;0.250;2022-11-04T09:26:05;8.90;99.90
5962;DHT22;3007;50.770;0.250;2022-11-04T09:28:34;8.90;99.90
5962;DHT22;3007;50.770;0.250;2022-11-04T09:31:07;8.90;99.90
5962;DHT22;3007;50.770;0.250;2022-11-04T09:33:34;9.00;99.90
5962;DHT22;3007;50.770;0.250;2022-11-04T09:36:02;9.10;99.90
5962;DHT22;3007;50.770;0.250;2022-11-04T09:38:29;9.10;99.90
5962;DHT22;3007;50.770;0.250;2022-11-04T09:40:57;9.10;99.90
5962;DHT22;3007;50.770;0.250;2022-11-04T09:43:36;9.10;99.90
5962;DHT22;3007;50.770;0.250;2022-11-04T09:46:07;9.10;99.90
5962;DHT22;3007;50.770;0.250;2022-11-04T09:48:39;9.20;99.90
5962;DHT22;3007;50.770;0.250;2022-11-04T09:51:07;9.20;99.90
5962;DHT22;3007;50.770;0.250;2022-11-04T09:53:39;9.20;99.90
5962;DHT22;3007;50.770;0.250;2022-11-04T09:56:12;9.30;99.90
5962;DHT22;3007;50.770;0.250;2022-11-04T09:58:44;9.30;99.90
5962;DHT22;3007;50.770;0.250;2022-11-04T10:01:22;9.30;99.90
5962;DHT22;3007;50.770;0.250;2022-11-04T10:04:05;9.30;99.90
5962;DHT22;3007;50.770;0.250;2022-11-04T10:06:42;9.40;99.90
5962;DHT22;3007;50.770;0.250;2022-11-04T10:09:18;9.40;99.90
5962;DHT22;3007;50.770;0.250;2022-11-04T10:11:59;9.50;99.90
5962;DHT22;3007;50.770;0.250;2022-11-04T10:14:46;9.50;99.90
5962;DHT22;3007;50.770;0.250;2022-11-04T10:17:29;9.50;99.90
5962;DHT22;3007;50.770;0.250;2022-11-04T10:20:14;9.60;99.90
5962;DHT22;3007;50.770;0.250;2022-11-04T10:22:52;9.60;99.90
5962;DHT22;3007;50.770;0.250;2022-11-04T10:25:24;9.60;99.90
5962;DHT22;3007;50.770;0.250;2022-11-04T10:27:53;9.60;99.90
5962;DHT22;3007;50.770;0.250;2022-11-04T10:30:22;9.60;99.90
5962;DHT22;3007;50.770;0.250;2022-11-04T10:32:59;9.70;99.90
5962;DHT22;3007;50.770;0.250;2022-11-04T10:35:30;9.70;99.90
5962;DHT22;3007;50.770;0.250;2022-11-04T10:38:15;9.70;99.90
5962;DHT22;3007;50.770;0.250;2022-11-04T10:40:46;9.70;99.90
5962;DHT22;3007;50.770;0.250;2022-11-04T10:43:16;9.70;99.90
5962;DHT22;3007;50.770;0.250;2022-11-04T10:45:54;9.70;99.90
5962;DHT22;3007;50.770;0.250;2022-11-04T10:48:28;9.70;99.90
5962;DHT22;3007;50.770;0.250;2022-11-04T10:50:57;9.70;99.90
5962;DHT22;3007;50.770;0.250;2022-11-04T10:53:26;9.70;99.90
5962;DHT22;3007;50.770;0.250;2022-11-04T10:55:58;9.80;99.90
5962;DHT22;3007;50.770;0.250;2022-11-04T10:58:33;9.80;99.90
5962;DHT22;3007;50.770;0.250;2022-11-04T11:01:22;9.80;99.90
5962;DHT22;3007;50.770;0.250;2022-11-04T11:03:52;9.80;99.90
5962;DHT22;3007;50.770;0.250;2022-11-04T11:06:23;10.60;99.90
5962;DHT22;3007;50.770;0.250;2022-11-04T11:08:51;9.90;99.90
5962;DHT22;3007;50.770;0.250;2022-11-04T11:11:35;9.90;99.90
5962;DHT22;3007;50.770;0.250;2022-11-04T11:14:02;9.90;99.90
5962;DHT22;3007;50.770;0.250;2022-11-04T11:16:31;9.80;99.90
5962;DHT22;3007;50.770;0.250;2022-11-04T11:19:13;9.90;99.90
5962;DHT22;3007;50.770;0.250;2022-11-04T11:21:42;9.90;99.90
5962;DHT22;3007;50.770;0.250;2022-11-04T11:24:16;9.90;99.90
5962;DHT22;3007;50.770;0.250;2022-11-04T11:26:44;10.00;99.90
5962;DHT22;3007;50.770;0.250;2022-11-04T11:29:18;10.00;99.90
5962;DHT22;3007;50.770;0.250;2022-11-04T11:31:49;10.00;99.90
5962;DHT22;3007;50.770;0.250;2022-11-04T11:34:21;10.10;99.90
5962;DHT22;3007;50.770;0.250;2022-11-04T11:36:51;10.10;99.90
5962;DHT22;3007;50.770;0.250;2022-11-04T11:39:20;10.10;99.90
5962;DHT22;3007;50.770;0.250;2022-11-04T11:41:56;10.10;99.90
5962;DHT22;3007;50.770;0.250;2022-11-04T11:44:26;10.10;99.90
5962;DHT22;3007;50.770;0.250;2022-11-04T11:47:00;10.10;99.90
5962;DHT22;3007;50.770;0.250;2022-11-04T11:49:30;10.20;99.90
5962;DHT22;3007;50.770;0.250;2022-11-04T11:52:17;10.20;99.90
5962;DHT22;3007;50.770;0.250;2022-11-04T11:54:50;10.20;99.90
5962;DHT22;3007;50.770;0.250;2022-11-04T11:57:28;10.20;99.90
5962;DHT22;3007;50.770;0.250;2022-11-04T12:00:02;10.20;99.90
5962;DHT22;3007;50.770;0.250;2022-11-04T12:02:39;10.20;99.90
5962;DHT22;3007;50.770;0.250;2022-11-04T12:05:08;10.30;99.90
5962;DHT22;3007;50.770;0.250;2022-11-04T12:07:39;10.30;99.90
5962;DHT22;3007;50.770;0.250;2022-11-04T12:10:14;10.30;99.90
5962;DHT22;3007;50.770;0.250;2022-11-04T12:12:55;10.30;99.90
5962;DHT22;3007;50.770;0.250;2022-11-04T12:21:40;10.30;99.90
5962;DHT22;3007;50.770;0.250;2022-11-04T12:24:24;10.30;99.90
5962;DHT22;3007;50.770;0.250;2022-11-04T12:27:04;10.40;99.90
5962;DHT22;3007;50.770;0.250;2022-11-04T12:29:42;10.40;99.90
5962;DHT22;3007;50.770;0.250;2022-11-04T12:32:26;10.40;99.90
5962;DHT22;3007;50.770;0.250;2022-11-04T12:35:05;10.40;99.90
5962;DHT22;3007;50.770;0.250;2022-11-04T12:37:43;10.50;99.90
5962;DHT22;3007;50.770;0.250;2022-11-04T12:40:19;10.50;99.90
5962;DHT22;3007;50.770;0.250;2022-11-04T12:42:58;10.50;99.90
5962;DHT22;3007;50.770;0.250;2022-11-04T12:45:33;10.50;99.90
5962;DHT22;3007;50.770;0.250;2022-11-04T12:48:10;10.50;99.90
5962;DHT22;3007;50.770;0.250;2022-11-04T12:50:57;10.50;99.90
5962;DHT22;3007;50.770;0.250;2022-11-04T12:53:57;10.50;99.90
5962;DHT22;3007;50.770;0.250;2022-11-04T12:56:34;10.60;99.90
5962;DHT22;3007;50.770;0.250;2022-11-04T12:59:20;10.60;99.90
5962;DHT22;3007;50.770;0.250;2022-11-04T13:01:55;10.60;99.90
5962;DHT22;3007;50.770;0.250;2022-11-04T13:04:31;10.50;99.90
5962;DHT22;3007;50.770;0.250;2022-11-04T13:07:08;10.50;99.90
5962;DHT22;3007;50.770;0.250;2022-11-04T13:09:38;10.50;99.90
5962;DHT22;3007;50.770;0.250;2022-11-04T13:12:13;10.50;99.90
5962;DHT22;3007;50.770;0.250;2022-11-04T13:14:45;10.60;99.90
5962;DHT22;3007;50.770;0.250;2022-11-04T13:17:17;10.50;99.90
5962;DHT22;3007;50.770;0.250;2022-11-04T13:19:48;10.50;99.90
5962;DHT22;3007;50.770;0.250;2022-11-04T13:22:22;10.50;99.90
5962;DHT22;3007;50.770;0.250;2022-11-04T13:24:53;10.40;99.90
5962;DHT22;3007;50.770;0.250;2022-11-04T13:27:24;10.40;99.90
5962;DHT22;3007;50.770;0.250;2022-11-04T13:30:01;10.50;99.90
5962;DHT22;3007;50.770;0.250;2022-11-04T13:32:33;10.50;99.90
5962;DHT22;3007;50.770;0.250;2022-11-04T13:35:08;10.50;99.90
5962;DHT22;3007;50.770;0.250;2022-11-04T13:37:46;10.50;99.90
5962;DHT22;3007;50.770;0.250;2022-11-04T13:40:17;10.50;99.90
5962;DHT22;3007;50.770;0.250;2022-11-04T13:43:16;10.50;99.90
5962;DHT22;3007;50.770;0.250;2022-11-04T13:46:02;10.60;99.90
5962;DHT22;3007;50.770;0.250;2022-11-04T13:48:31;10.70;99.90
5962;DHT22;3007;50.770;0.250;2022-11-04T13:51:01;10.70;99.90
5962;DHT22;3007;50.770;0.250;2022-11-04T13:53:43;10.60;99.90
5962;DHT22;3007;50.770;0.250;2022-11-04T13:56:26;10.60;99.90
5962;DHT22;3007;50.770;0.250;2022-11-04T13:58:57;10.60;99.90
5962;DHT22;3007;50.770;0.250;2022-11-04T14:01:29;10.50;99.90
5962;DHT22;3007;50.770;0.250;2022-11-04T14:04:14;10.50;99.90
5962;DHT22;3007;50.770;0.250;2022-11-04T14:06:57;10.40;99.90
5962;DHT22;3007;50.770;0.250;2022-11-04T14:12:26;10.40;99.90
5962;DHT22;3007;50.770;0.250;2022-11-04T14:14:54;10.30;99.90
5962;DHT22;3007;50.770;0.250;2022-11-04T14:17:56;10.30;99.90
5962;DHT22;3007;50.770;0.250;2022-11-04T14:20:27;10.20;99.90
5962;DHT22;3007;50.770;0.250;2022-11-04T14:22:56;10.20;99.90
5962;DHT22;3007;50.770;0.250;2022-11-04T14:25:28;10.20;99.90
5962;DHT22;3007;50.770;0.250;2022-11-04T14:27:58;10.20;99.90
5962;DHT22;3007;50.770;0.250;2022-11-04T14:33:24;10.20;99.90
5962;DHT22;3007;50.770;0.250;2022-11-04T14:35:54;10.20;99.90
5962;DHT22;3007;50.770;0.250;2022-11-04T14:38:25;10.20;99.90
5962;DHT22;3007;50.770;0.250;2022-11-04T14:41:14;10.20;99.90
5962;DHT22;3007;50.770;0.250;2022-11-04T14:43:43;10.10;99.90
5962;DHT22;3007;50.770;0.250;2022-11-04T14:46:17;10.10;99.90
5962;DHT22;3007;50.770;0.250;2022-11-04T14:48:46;10.10;99.90
5962;DHT22;3007;50.770;0.250;2022-11-04T14:51:22;10.10;99.90
5962;DHT22;3007;50.770;0.250;2022-11-04T14:53:51;10.00;99.90
5962;DHT22;3007;50.770;0.250;2022-11-04T14:56:22;10.00;99.90
5962;DHT22;3007;50.770;0.250;2022-11-04T14:58:54;10.00;99.90
5962;DHT22;3007;50.770;0.250;2022-11-04T15:01:23;10.00;99.90
5962;DHT22;3007;50.770;0.250;2022-11-04T15:03:51;9.90;99.90
5962;DHT22;3007;50.770;0.250;2022-11-04T15:06:26;9.90;99.90
5962;DHT22;3007;50.770;0.250;2022-11-04T15:08:54;9.90;99.90
5962;DHT22;3007;50.770;0.250;2022-11-04T15:11:24;10.50;99.90
5962;DHT22;3007;50.770;0.250;2022-11-04T15:14:13;9.80;99.90
5962;DHT22;3007;50.770;0.250;2022-11-04T15:16:41;9.80;99.90
5962;DHT22;3007;50.770;0.250;2022-11-04T15:19:10;9.70;99.90
5962;DHT22;3007;50.770;0.250;2022-11-04T15:21:40;9.70;99.90
5962;DHT22;3007;50.770;0.250;2022-11-04T15:24:13;9.70;99.90
5962;DHT22;3007;50.770;0.250;2022-11-04T15:26:42;9.70;99.90
5962;DHT22;3007;50.770;0.250;2022-11-04T15:29:15;9.70;99.90
5962;DHT22;3007;50.770;0.250;2022-11-04T15:31:52;9.60;99.90
5962;DHT22;3007;50.770;0.250;2022-11-04T15:34:19;9.60;99.90
5962;DHT22;3007;50.770;0.250;2022-11-04T15:36:48;9.60;99.90
5962;DHT22;3007;50.770;0.250;2022-11-04T15:39:18;9.60;99.90
5962;DHT22;3007;50.770;0.250;2022-11-04T15:41:49;9.50;99.90
5962;DHT22;3007;50.770;0.250;2022-11-04T15:44:36;9.50;99.90
5962;DHT22;3007;50.770;0.250;2022-11-04T15:47:20;9.40;99.90
5962;DHT22;3007;50.770;0.250;2022-11-04T15:49:49;9.30;99.90
5962;DHT22;3007;50.770;0.250;2022-11-04T15:52:19;9.30;99.90
5962;DHT22;3007;50.770;0.250;2022-11-04T15:54:48;9.30;99.90
5962;DHT22;3007;50.770;0.250;2022-11-04T15:57:18;9.20;99.90
5962;DHT22;3007;50.770;0.250;2022-11-04T15:59:49;9.10;99.90
5962;DHT22;3007;50.770;0.250;2022-11-04T16:02:23;9.00;99.90
5962;DHT22;3007;50.770;0.250;2022-11-04T16:05:02;8.80;99.90
5962;DHT22;3007;50.770;0.250;2022-11-04T16:07:32;8.80;99.90
5962;DHT22;3007;50.770;0.250;2022-11-04T16:09:59;8.70;99.90
5962;DHT22;3007;50.770;0.250;2022-11-04T16:12:33;8.60;99.90
5962;DHT22;3007;50.770;0.250;2022-11-04T16:15:00;8.60;99.90
5962;DHT22;3007;50.770;0.250;2022-11-04T16:17:28;8.50;99.90
5962;DHT22;3007;50.770;0.250;2022-11-04T16:19:57;8.50;99.90
5962;DHT22;3007;50.770;0.250;2022-11-04T16:22:28;8.40;99.90
5962;DHT22;3007;50.770;0.250;2022-11-04T16:24:55;8.30;99.90
5962;DHT22;3007;50.770;0.250;2022-11-04T16:27:23;8.30;99.90
5962;DHT22;3007;50.770;0.250;2022-11-04T16:30:04;8.20;99.90
5962;DHT22;3007;50.770;0.250;2022-11-04T16:32:40;8.20;99.90
5962;DHT22;3007;50.770;0.250;2022-11-04T16:35:17;8.10;99.90
5962;DHT22;3007;50.770;0.250;2022-11-04T16:37:44;8.00;99.90
5962;DHT22;3007;50.770;0.250;2022-11-04T16:40:12;7.90;99.90
5962;DHT22;3007;50.770;0.250;2022-11-04T16:42:40;7.80;99.90
5962;DHT22;3007;50.770;0.250;2022-11-04T16:45:17;7.80;99.90
5962;DHT22;3007;50.770;0.250;2022-11-04T16:47:44;7.70;99.90
5962;DHT22;3007;50.770;0.250;2022-11-04T16:50:13;7.70;99.90
5962;DHT22;3007;50.770;0.250;2022-11-04T16:52:41;7.70;99.90
5962;DHT22;3007;50.770;0.250;2022-11-04T16:55:09;7.70;99.90
5962;DHT22;3007;50.770;0.250;2022-11-04T16:57:36;7.60;99.90
5962;DHT22;3007;50.770;0.250;2022-11-04T17:00:04;7.60;99.90
5962;DHT22;3007;50.770;0.250;2022-11-04T17:02:34;7.60;99.90